createdAt,value
2018-01-15T00:00:20.113Z,1000.88
2018-01-15T00:01:20.085Z,1000.88
2018-01-15T00:02:20.069Z,1000.89
2018-01-15T00:03:20.056Z,1000.86
2018-01-15T00:04:20.042Z,1000.82
2018-01-15T00:05:20.029Z,1000.76
2018-01-15T00:06:20.014Z,1000.76
2018-01-15T00:07:20.000Z,1000.73
2018-01-15T00:08:19.985Z,1000.68
2018-01-15T00:09:19.972Z,1000.69
2018-01-15T00:10:19.957Z,1000.66
2018-01-15T00:11:19.953Z,1000.62
2018-01-15T00:12:19.931Z,1000.67
2018-01-15T00:13:19.916Z,1000.67
2018-01-15T00:14:19.907Z,1000.65
2018-01-15T00:15:19.888Z,1000.65
2018-01-15T00:16:19.885Z,1000.64
2018-01-15T00:17:19.862Z,1000.54
2018-01-15T00:18:19.846Z,1000.61
2018-01-15T00:19:19.833Z,1000.57
2018-01-15T00:20:19.819Z,1000.56
2018-01-15T00:21:19.806Z,1000.54
2018-01-15T00:22:19.793Z,1000.58
2018-01-15T00:23:19.780Z,1000.55
2018-01-15T00:24:19.764Z,1000.56
2018-01-15T00:25:19.751Z,1000.51
2018-01-15T00:26:19.737Z,1000.53
2018-01-15T00:27:19.724Z,1000.45
2018-01-15T00:28:19.710Z,1000.46
2018-01-15T00:29:19.696Z,1000.40
2018-01-15T00:30:19.682Z,1000.37
2018-01-15T00:31:19.670Z,1000.33
2018-01-15T00:32:19.657Z,1000.26
2018-01-15T00:33:19.647Z,1000.32
2018-01-15T00:34:19.628Z,1000.30
2018-01-15T00:35:19.615Z,1000.21
2018-01-15T00:36:19.602Z,1000.25
2018-01-15T00:37:19.590Z,1000.23
2018-01-15T00:38:19.575Z,1000.26
2018-01-15T00:39:19.562Z,1000.15
2018-01-15T00:40:19.549Z,1000.17
2018-01-15T00:41:19.537Z,1000.15
2018-01-15T00:42:19.532Z,1000.15
2018-01-15T00:43:19.508Z,1000.11
2018-01-15T00:44:19.494Z,1000.13
2018-01-15T00:45:19.482Z,1000.12
2018-01-15T00:46:19.468Z,1000.14
2018-01-15T00:47:19.456Z,1000.16
2018-01-15T00:48:19.441Z,1000.16
2018-01-15T00:49:19.429Z,1000.16
2018-01-15T00:50:19.414Z,1000.15
2018-01-15T00:51:19.402Z,1000.16
2018-01-15T00:52:19.389Z,1000.13
2018-01-15T00:53:19.375Z,1000.11
2018-01-15T00:54:19.361Z,1000.07
2018-01-15T00:55:19.448Z,1000.08
2018-01-15T00:56:19.336Z,1000.05
2018-01-15T00:57:19.322Z,1000.06
2018-01-15T00:58:19.308Z,1000.02
2018-01-15T00:59:19.294Z,1000.05
2018-01-15T01:00:19.286Z,1000.00
2018-01-15T01:01:19.273Z,999.99
2018-01-15T01:02:19.260Z,1000.00
2018-01-15T01:03:19.247Z,999.96
2018-01-15T01:04:19.234Z,999.97
2018-01-15T01:05:19.217Z,999.92
2018-01-15T01:06:19.204Z,999.92
2018-01-15T01:07:19.190Z,999.92
2018-01-15T01:08:19.180Z,999.91
2018-01-15T01:09:19.164Z,999.93
2018-01-15T01:10:19.152Z,999.92
2018-01-15T01:11:19.138Z,999.91
2018-01-15T01:12:19.137Z,999.83
2018-01-15T01:13:19.114Z,999.83
2018-01-15T01:14:19.098Z,999.86
2018-01-15T01:15:19.086Z,999.87
2018-01-15T01:16:19.073Z,999.83
2018-01-15T01:17:19.060Z,999.80
2018-01-15T01:18:19.047Z,999.81
2018-01-15T01:19:19.034Z,999.81
2018-01-15T01:20:19.021Z,999.79
2018-01-15T01:21:19.008Z,999.80
2018-01-15T01:22:18.994Z,999.72
2018-01-15T01:23:18.997Z,999.71
2018-01-15T01:24:18.969Z,999.67
2018-01-15T01:25:18.956Z,999.61
2018-01-15T01:26:18.942Z,999.61
2018-01-15T01:27:18.929Z,999.58
2018-01-15T01:28:18.927Z,999.58
2018-01-15T01:29:18.904Z,999.58
2018-01-15T01:30:18.890Z,999.58
2018-01-15T01:31:18.878Z,999.61
2018-01-15T01:32:18.865Z,999.62
2018-01-15T01:33:18.853Z,999.67
2018-01-15T01:34:18.839Z,999.71
2018-01-15T01:35:18.834Z,999.69
2018-01-15T01:36:18.813Z,999.70
2018-01-15T01:37:18.802Z,999.75
2018-01-15T01:38:18.787Z,999.75
2018-01-15T01:39:18.784Z,999.74
2018-01-15T01:40:18.763Z,999.70
2018-01-15T01:41:18.750Z,999.69
2018-01-15T01:42:18.736Z,999.72
2018-01-15T01:43:18.724Z,999.68
2018-01-15T01:44:18.720Z,999.65
2018-01-15T01:45:18.700Z,999.65
2018-01-15T01:46:18.686Z,999.65
2018-01-15T01:47:18.674Z,999.64
2018-01-15T01:48:18.661Z,999.64
2018-01-15T01:49:18.653Z,999.62
2018-01-15T01:50:18.636Z,999.62
2018-01-15T01:51:18.623Z,999.64
2018-01-15T01:52:18.610Z,999.61
2018-01-15T01:53:18.598Z,999.65
2018-01-15T01:54:18.584Z,999.61
2018-01-15T01:55:18.571Z,999.62
2018-01-15T01:56:18.558Z,999.65
2018-01-15T01:57:18.546Z,999.62
2018-01-15T01:58:18.533Z,999.60
2018-01-15T01:59:18.521Z,999.58
2018-01-15T02:00:18.508Z,999.57
2018-01-15T02:01:18.495Z,999.54
2018-01-15T02:02:18.482Z,999.54
2018-01-15T02:03:18.469Z,999.49
2018-01-15T02:04:18.457Z,999.45
2018-01-15T02:05:18.445Z,999.43
2018-01-15T02:06:18.430Z,999.42
2018-01-15T02:07:18.418Z,999.45
2018-01-15T02:08:18.404Z,999.42
2018-01-15T02:09:18.408Z,999.35
2018-01-15T02:10:18.379Z,999.36
2018-01-15T02:11:18.369Z,999.33
2018-01-15T02:12:18.354Z,999.33
2018-01-15T02:13:18.341Z,999.32
2018-01-15T02:14:18.329Z,999.29
2018-01-15T02:15:18.318Z,999.30
2018-01-15T02:16:18.302Z,999.32
2018-01-15T02:17:18.289Z,999.27
2018-01-15T02:18:18.276Z,999.27
2018-01-15T02:19:18.264Z,999.24
2018-01-15T02:20:18.252Z,999.23
2018-01-15T02:21:18.239Z,999.19
2018-01-15T02:22:18.224Z,999.26
2018-01-15T02:23:18.214Z,999.28
2018-01-15T02:24:18.201Z,999.29
2018-01-15T02:25:18.188Z,999.31
2018-01-15T02:26:18.174Z,999.30
2018-01-15T02:27:18.161Z,999.31
2018-01-15T02:28:18.148Z,999.26
2018-01-15T02:29:18.136Z,999.30
2018-01-15T02:30:18.123Z,999.24
2018-01-15T02:31:18.110Z,999.25
2018-01-15T02:32:18.097Z,999.27
2018-01-15T02:33:18.085Z,999.23
2018-01-15T02:34:18.073Z,999.25
2018-01-15T02:35:18.059Z,999.27
2018-01-15T02:36:18.045Z,999.26
2018-01-15T02:37:18.034Z,999.22
2018-01-15T02:38:18.019Z,999.22
2018-01-15T02:39:18.007Z,999.22
2018-01-15T02:40:18.003Z,999.20
2018-01-15T02:41:18.082Z,999.14
2018-01-15T02:42:17.969Z,999.12
2018-01-15T02:43:17.956Z,999.10
2018-01-15T02:44:17.943Z,999.12
2018-01-15T02:45:17.932Z,999.05
2018-01-15T02:46:17.920Z,999.03
2018-01-15T02:47:17.907Z,999.01
2018-01-15T02:48:17.891Z,998.98
2018-01-15T02:49:17.879Z,998.95
2018-01-15T02:50:17.867Z,998.94
2018-01-15T02:51:17.862Z,998.83
2018-01-15T02:52:17.843Z,998.93
2018-01-15T02:53:17.829Z,998.88
2018-01-15T02:54:17.815Z,998.85
2018-01-15T02:55:17.803Z,998.80
2018-01-15T02:56:17.799Z,998.83
2018-01-15T02:57:17.778Z,998.84
2018-01-15T02:58:17.764Z,998.79
2018-01-15T02:59:17.752Z,998.80
2018-01-15T03:00:17.740Z,998.77
2018-01-15T03:01:17.727Z,998.78
2018-01-15T03:02:17.714Z,998.76
2018-01-15T03:03:17.701Z,998.72
2018-01-15T03:04:17.690Z,998.72
2018-01-15T03:05:17.682Z,998.69
2018-01-15T03:06:17.665Z,998.70
2018-01-15T03:07:17.652Z,998.65
2018-01-15T03:08:17.638Z,998.60
2018-01-15T03:09:17.626Z,998.60
2018-01-15T03:10:17.613Z,998.58
2018-01-15T03:11:17.601Z,998.58
2018-01-15T03:12:17.596Z,998.52
2018-01-15T03:13:17.576Z,998.45
2018-01-15T03:14:17.562Z,998.43
2018-01-15T03:15:17.550Z,998.39
2018-01-15T03:16:17.538Z,998.41
2018-01-15T03:17:17.526Z,998.37
2018-01-15T03:18:17.512Z,998.37
2018-01-15T03:19:17.501Z,998.36
2018-01-15T03:20:17.587Z,998.34
2018-01-15T03:21:17.475Z,998.34
2018-01-15T03:22:17.471Z,998.37
2018-01-15T03:23:17.450Z,998.34
2018-01-15T03:24:17.438Z,998.21
2018-01-15T03:25:17.425Z,998.27
2018-01-15T03:26:17.413Z,998.27
2018-01-15T03:27:17.400Z,998.22
2018-01-15T03:28:17.387Z,998.20
2018-01-15T03:29:17.375Z,998.21
2018-01-15T03:30:17.363Z,998.19
2018-01-15T03:31:17.350Z,998.17
2018-01-15T03:32:17.338Z,998.21
2018-01-15T03:33:17.325Z,998.15
2018-01-15T03:34:17.312Z,998.21
2018-01-15T03:35:17.299Z,998.10
2018-01-15T03:36:17.288Z,998.11
2018-01-15T03:37:17.275Z,998.12
2018-01-15T03:38:17.261Z,998.14
2018-01-15T03:39:17.249Z,998.12
2018-01-15T03:40:17.236Z,998.06
2018-01-15T03:41:17.230Z,998.04
2018-01-15T03:42:17.210Z,998.03
2018-01-15T03:43:17.198Z,997.97
2018-01-15T03:44:17.186Z,998.01
2018-01-15T03:45:17.173Z,997.99
2018-01-15T03:46:17.160Z,997.99
2018-01-15T03:47:17.150Z,998.01
2018-01-15T03:48:17.135Z,998.01
2018-01-15T03:49:17.123Z,997.98
2018-01-15T03:50:17.109Z,998.00
2018-01-15T03:51:17.098Z,998.01
2018-01-15T03:52:17.093Z,997.94
2018-01-15T03:53:17.073Z,997.91
2018-01-15T03:54:17.059Z,997.89
2018-01-15T03:55:17.051Z,997.92
2018-01-15T03:56:17.036Z,997.86
2018-01-15T03:57:17.024Z,997.85
2018-01-15T03:58:17.010Z,997.85
2018-01-15T03:59:16.997Z,997.81
2018-01-15T04:00:16.985Z,997.80
2018-01-15T04:01:16.976Z,997.75
2018-01-15T04:02:16.960Z,997.75
2018-01-15T04:03:16.960Z,997.73
2018-01-15T04:04:16.935Z,997.75
2018-01-15T04:05:16.923Z,997.69
2018-01-15T04:06:16.910Z,997.67
2018-01-15T04:07:16.897Z,997.67
2018-01-15T04:08:16.894Z,997.64
2018-01-15T04:09:16.874Z,997.66
2018-01-15T04:10:16.863Z,997.66
2018-01-15T04:11:16.848Z,997.66
2018-01-15T04:12:16.841Z,997.70
2018-01-15T04:13:16.824Z,997.64
2018-01-15T04:14:16.810Z,997.62
2018-01-15T04:15:16.798Z,997.60
2018-01-15T04:16:16.785Z,997.61
2018-01-15T04:17:16.772Z,997.63
2018-01-15T04:18:16.760Z,997.66
2018-01-15T04:19:16.748Z,997.59
2018-01-15T04:20:16.735Z,997.57
2018-01-15T04:21:16.723Z,997.60
2018-01-15T04:22:16.709Z,997.54
2018-01-15T04:23:16.697Z,997.54
2018-01-15T04:24:16.685Z,997.56
2018-01-15T04:25:16.672Z,997.54
2018-01-15T04:26:16.658Z,997.57
2018-01-15T04:27:16.646Z,997.49
2018-01-15T04:28:16.635Z,997.53
2018-01-15T04:29:16.623Z,997.48
2018-01-15T04:30:16.608Z,997.50
2018-01-15T04:31:16.597Z,997.44
2018-01-15T04:32:16.584Z,997.50
2018-01-15T04:33:16.572Z,997.50
2018-01-15T04:34:16.558Z,997.48
2018-01-15T04:35:16.546Z,997.54
2018-01-15T04:36:16.533Z,997.55
2018-01-15T04:37:16.521Z,997.56
2018-01-15T04:38:16.509Z,997.53
2018-01-15T04:39:16.495Z,997.52
2018-01-15T04:40:16.482Z,997.48
2018-01-15T04:41:16.470Z,997.49
2018-01-15T04:42:16.456Z,997.49
2018-01-15T04:43:16.445Z,997.50
2018-01-15T04:44:16.432Z,997.40
2018-01-15T04:45:16.419Z,997.46
2018-01-15T04:46:16.405Z,997.39
2018-01-15T04:47:16.392Z,997.43
2018-01-15T04:48:16.380Z,997.35
2018-01-15T04:49:16.367Z,997.35
2018-01-15T04:50:16.354Z,997.30
2018-01-15T04:51:16.340Z,997.30
2018-01-15T04:52:16.328Z,997.27
2018-01-15T04:53:16.315Z,997.28
2018-01-15T04:54:16.302Z,997.26
2018-01-15T04:55:16.289Z,997.21
2018-01-15T04:56:16.275Z,997.15
2018-01-15T04:57:16.262Z,997.21
2018-01-15T04:58:16.249Z,997.20
2018-01-15T04:59:16.236Z,997.16
2018-01-15T05:00:16.222Z,997.19
2018-01-15T05:01:16.208Z,997.22
2018-01-15T05:02:16.195Z,997.16
2018-01-15T05:03:16.181Z,997.19
2018-01-15T05:04:16.169Z,997.13
2018-01-15T05:05:16.156Z,997.06
2018-01-15T05:06:16.140Z,997.06
2018-01-15T05:07:16.126Z,997.08
2018-01-15T05:08:16.114Z,996.99
2018-01-15T05:09:16.101Z,997.00
2018-01-15T05:10:16.087Z,997.01
2018-01-15T05:11:16.073Z,997.02
2018-01-15T05:12:16.060Z,997.01
2018-01-15T05:13:16.046Z,997.04
2018-01-15T05:14:16.032Z,997.06
2018-01-15T05:15:16.018Z,996.98
2018-01-15T05:16:16.005Z,997.08
2018-01-15T05:17:15.996Z,996.97
2018-01-15T05:18:15.977Z,996.96
2018-01-15T05:19:15.964Z,997.00
2018-01-15T05:20:15.964Z,996.95
2018-01-15T05:21:15.936Z,996.97
2018-01-15T05:22:15.921Z,996.91
2018-01-15T05:23:15.910Z,996.86
2018-01-15T05:24:15.895Z,996.86
2018-01-15T05:25:15.882Z,996.88
2018-01-15T05:26:15.867Z,996.84
2018-01-15T05:27:15.852Z,996.78
2018-01-15T05:28:15.839Z,996.79
2018-01-15T05:29:15.876Z,996.74
2018-01-15T05:30:15.812Z,996.79
2018-01-15T05:31:15.798Z,996.80
2018-01-15T05:32:15.784Z,996.81
2018-01-15T05:33:15.770Z,996.81
2018-01-15T05:34:15.756Z,996.79
2018-01-15T05:35:15.744Z,996.81
2018-01-15T05:36:15.732Z,996.78
2018-01-15T05:37:15.716Z,996.80
2018-01-15T05:38:15.701Z,996.81
2018-01-15T05:39:15.687Z,996.75
2018-01-15T05:40:15.674Z,996.78
2018-01-15T05:41:15.661Z,996.76
2018-01-15T05:42:15.646Z,996.78
2018-01-15T05:43:15.634Z,996.75
2018-01-15T05:44:15.618Z,996.75
2018-01-15T05:45:15.609Z,996.74
2018-01-15T05:46:15.591Z,996.73
2018-01-15T05:47:15.577Z,996.78
2018-01-15T05:48:15.564Z,996.69
2018-01-15T05:49:15.549Z,996.70
2018-01-15T05:50:15.536Z,996.71
2018-01-15T05:51:15.524Z,996.69
2018-01-15T05:52:15.508Z,996.72
2018-01-15T05:53:15.499Z,996.62
2018-01-15T05:54:15.480Z,996.63
2018-01-15T05:55:15.466Z,996.57
2018-01-15T05:56:15.453Z,996.57
2018-01-15T05:57:15.438Z,996.52
2018-01-15T05:58:15.423Z,996.50
2018-01-15T05:59:15.410Z,996.47
2018-01-15T06:00:15.397Z,996.44
2018-01-15T06:01:15.383Z,996.44
2018-01-15T06:02:15.372Z,996.41
2018-01-15T06:03:15.356Z,996.39
2018-01-15T06:04:15.340Z,996.38
2018-01-15T06:05:15.327Z,996.38
2018-01-15T06:06:15.315Z,996.35
2018-01-15T06:07:15.298Z,996.35
2018-01-15T06:08:15.284Z,996.32
2018-01-15T06:09:15.271Z,996.30
2018-01-15T06:10:15.257Z,996.25
2018-01-15T06:11:15.243Z,996.20
2018-01-15T06:12:15.230Z,996.20
2018-01-15T06:13:15.215Z,996.21
2018-01-15T06:14:15.200Z,996.16
2018-01-15T06:15:15.186Z,996.19
2018-01-15T06:16:15.180Z,996.13
2018-01-15T06:17:15.159Z,996.15
2018-01-15T06:18:15.144Z,996.06
2018-01-15T06:19:15.130Z,996.07
2018-01-15T06:20:15.116Z,996.01
2018-01-15T06:21:15.104Z,996.00
2018-01-15T06:22:15.089Z,995.98
2018-01-15T06:23:15.074Z,995.93
2018-01-15T06:24:15.060Z,995.98
2018-01-15T06:25:15.050Z,995.98
2018-01-15T06:26:15.033Z,995.96
2018-01-15T06:27:15.019Z,995.94
2018-01-15T06:28:15.006Z,995.91
2018-01-15T06:29:14.991Z,995.86
2018-01-15T06:30:14.977Z,995.81
2018-01-15T06:31:14.963Z,995.85
2018-01-15T06:32:14.959Z,995.83
2018-01-15T06:33:14.936Z,995.89
2018-01-15T06:34:14.927Z,995.91
2018-01-15T06:35:14.908Z,995.87
2018-01-15T06:36:14.895Z,995.84
2018-01-15T06:37:14.881Z,995.77
2018-01-15T06:38:14.867Z,995.81
2018-01-15T06:39:14.852Z,995.78
2018-01-15T06:40:14.840Z,995.78
2018-01-15T06:41:14.825Z,995.75
2018-01-15T06:42:14.811Z,995.77
2018-01-15T06:43:14.801Z,995.79
2018-01-15T06:44:14.784Z,995.76
2018-01-15T06:45:14.770Z,995.71
2018-01-15T06:46:14.755Z,995.66
2018-01-15T06:47:14.743Z,995.70
2018-01-15T06:48:14.728Z,995.67
2018-01-15T06:49:14.715Z,995.59
2018-01-15T06:50:14.701Z,995.62
2018-01-15T06:51:14.687Z,995.61
2018-01-15T06:52:14.674Z,995.57
2018-01-15T06:53:14.662Z,995.56
2018-01-15T06:54:14.646Z,995.55
2018-01-15T06:55:14.632Z,995.54
2018-01-15T06:56:14.619Z,995.52
2018-01-15T06:57:14.606Z,995.56
2018-01-15T06:58:14.591Z,995.53
2018-01-15T06:59:14.577Z,995.51
2018-01-15T07:00:14.571Z,995.43
2018-01-15T07:01:14.549Z,995.47
2018-01-15T07:02:14.536Z,995.49
2018-01-15T07:03:14.522Z,995.39
2018-01-15T07:04:14.508Z,995.44
2018-01-15T07:05:14.494Z,995.47
2018-01-15T07:06:14.480Z,995.44
2018-01-15T07:07:14.468Z,995.50
2018-01-15T07:08:14.454Z,995.45
2018-01-15T07:09:14.440Z,995.47
2018-01-15T07:10:14.425Z,995.43
2018-01-15T07:11:14.412Z,995.46
2018-01-15T07:12:14.399Z,995.46
2018-01-15T07:13:14.386Z,995.38
2018-01-15T07:14:14.371Z,995.41
2018-01-15T07:15:14.357Z,995.36
2018-01-15T07:16:14.344Z,995.37
2018-01-15T07:17:14.381Z,995.27
2018-01-15T07:18:14.317Z,995.42
2018-01-15T07:19:14.303Z,995.32
2018-01-15T07:20:14.289Z,995.33
2018-01-15T07:21:14.276Z,995.31
2018-01-15T07:22:14.263Z,995.27
2018-01-15T07:23:14.250Z,995.38
2018-01-15T07:24:14.235Z,995.31
2018-01-15T07:25:14.222Z,995.34
2018-01-15T07:26:14.209Z,995.34
2018-01-15T07:27:14.195Z,995.31
2018-01-15T07:28:14.181Z,995.35
2018-01-15T07:29:14.168Z,995.28
2018-01-15T07:30:14.153Z,995.25
2018-01-15T07:31:14.140Z,995.25
2018-01-15T07:32:14.127Z,995.23
2018-01-15T07:33:14.128Z,995.22
2018-01-15T07:34:14.100Z,995.25
2018-01-15T07:35:14.086Z,995.20
2018-01-15T07:36:14.075Z,995.16
2018-01-15T07:37:14.059Z,995.18
2018-01-15T07:38:14.049Z,995.17
2018-01-15T07:39:14.033Z,995.12
2018-01-15T07:40:14.019Z,995.18
2018-01-15T07:41:14.005Z,995.11
2018-01-15T07:42:13.991Z,995.19
2018-01-15T07:43:13.978Z,995.06
2018-01-15T07:44:13.973Z,995.10
2018-01-15T07:45:13.951Z,995.03
2018-01-15T07:46:13.937Z,995.14
2018-01-15T07:47:13.924Z,995.07
2018-01-15T07:48:13.912Z,995.13
2018-01-15T07:49:13.914Z,995.05
2018-01-15T07:50:13.884Z,995.05
2018-01-15T07:51:13.870Z,995.09
2018-01-15T07:52:13.856Z,995.00
2018-01-15T07:53:13.844Z,995.02
2018-01-15T07:54:13.830Z,995.03
2018-01-15T07:55:13.817Z,994.99
2018-01-15T07:56:13.804Z,994.95
2018-01-15T07:57:13.790Z,994.93
2018-01-15T07:58:13.776Z,994.91
2018-01-15T07:59:13.770Z,994.96
2018-01-15T08:00:13.750Z,994.93
2018-01-15T08:01:13.736Z,994.91
2018-01-15T08:02:13.724Z,994.84
2018-01-15T08:03:13.710Z,994.91
2018-01-15T08:04:13.697Z,994.90
2018-01-15T08:05:13.684Z,994.92
2018-01-15T08:06:13.672Z,994.91
2018-01-15T08:07:13.657Z,994.93
2018-01-15T08:08:13.644Z,994.92
2018-01-15T08:09:13.682Z,994.89
2018-01-15T08:10:13.618Z,994.94
2018-01-15T08:11:13.605Z,994.88
2018-01-15T08:12:13.592Z,994.85
2018-01-15T08:13:13.579Z,994.90
2018-01-15T08:14:13.566Z,994.88
2018-01-15T08:15:13.580Z,994.88
2018-01-15T08:16:13.540Z,994.84
2018-01-15T08:17:13.527Z,994.80
2018-01-15T08:18:13.513Z,994.77
2018-01-15T08:19:13.501Z,994.81
2018-01-15T08:20:13.488Z,994.73
2018-01-15T08:21:13.475Z,994.68
2018-01-15T08:22:13.460Z,994.67
2018-01-15T08:23:13.448Z,994.67
2018-01-15T08:24:13.436Z,994.63
2018-01-15T08:25:13.422Z,994.57
2018-01-15T08:26:13.408Z,994.56
2018-01-15T08:27:13.396Z,994.55
2018-01-15T08:28:13.383Z,994.53
2018-01-15T08:29:13.379Z,994.51
2018-01-15T08:30:13.357Z,994.48
2018-01-15T08:31:13.343Z,994.43
2018-01-15T08:32:13.330Z,994.49
2018-01-15T08:33:13.318Z,994.46
2018-01-15T08:34:13.305Z,994.41
2018-01-15T08:35:13.301Z,994.46
2018-01-15T08:36:13.280Z,994.42
2018-01-15T08:37:13.267Z,994.43
2018-01-15T08:38:13.254Z,994.39
2018-01-15T08:39:13.241Z,994.29
2018-01-15T08:40:13.230Z,994.27
2018-01-15T08:41:13.216Z,994.27
2018-01-15T08:42:13.203Z,994.23
2018-01-15T08:43:13.190Z,994.30
2018-01-15T08:44:13.178Z,994.20
2018-01-15T08:45:13.173Z,994.22
2018-01-15T08:46:13.152Z,994.17
2018-01-15T08:47:13.139Z,994.18
2018-01-15T08:48:13.127Z,994.22
2018-01-15T08:49:13.115Z,994.17
2018-01-15T08:50:13.101Z,994.12
2018-01-15T08:51:13.088Z,994.15
2018-01-15T08:52:13.075Z,994.06
2018-01-15T08:53:13.063Z,994.01
2018-01-15T08:54:13.050Z,994.00
2018-01-15T08:55:13.038Z,993.94
2018-01-15T08:56:13.025Z,993.99
2018-01-15T08:57:13.012Z,993.90
2018-01-15T08:58:12.999Z,993.91
2018-01-15T08:59:12.986Z,993.91
2018-01-15T09:00:12.973Z,993.90
2018-01-15T09:01:13.007Z,994.02
2018-01-15T09:02:12.947Z,993.92
2018-01-15T09:03:12.935Z,993.89
2018-01-15T09:04:12.979Z,993.85
2018-01-15T09:05:12.909Z,993.86
2018-01-15T09:06:12.896Z,993.90
2018-01-15T09:07:12.884Z,993.83
2018-01-15T09:08:12.871Z,993.75
2018-01-15T09:09:12.859Z,993.75
2018-01-15T09:10:12.846Z,993.78
2018-01-15T09:11:12.834Z,993.72
2018-01-15T09:12:12.822Z,993.57
2018-01-15T09:13:12.808Z,993.59
2018-01-15T09:14:12.795Z,993.56
2018-01-15T09:15:12.782Z,993.55
2018-01-15T09:16:12.771Z,993.53
2018-01-15T09:17:12.760Z,993.42
2018-01-15T09:18:12.743Z,993.47
2018-01-15T09:19:12.734Z,993.51
2018-01-15T09:20:12.720Z,993.53
2018-01-15T09:21:12.710Z,993.41
2018-01-15T09:22:12.695Z,993.53
2018-01-15T09:23:12.682Z,993.60
2018-01-15T09:24:12.669Z,993.39
2018-01-15T09:25:12.656Z,993.43
2018-01-15T09:26:12.645Z,993.41
2018-01-15T09:27:12.633Z,993.45
2018-01-15T09:28:12.619Z,993.38
2018-01-15T09:29:12.607Z,993.44
2018-01-15T09:30:12.594Z,993.31
2018-01-15T09:31:12.582Z,993.75
2018-01-15T09:32:12.570Z,993.41
2018-01-15T09:33:12.557Z,993.37
2018-01-15T09:34:12.544Z,993.43
2018-01-15T09:35:12.532Z,993.46
2018-01-15T09:36:12.520Z,993.40
2018-01-15T09:37:12.508Z,993.37
2018-01-15T09:38:12.494Z,993.34
2018-01-15T09:39:12.486Z,993.39
2018-01-15T09:40:12.470Z,993.28
2018-01-15T09:41:12.469Z,993.40
2018-01-15T09:42:12.468Z,993.41
2018-01-15T09:43:12.450Z,993.35
2018-01-15T09:44:12.420Z,993.35
2018-01-15T09:45:12.408Z,993.26
2018-01-15T09:46:12.396Z,993.28
2018-01-15T09:47:12.383Z,993.24
2018-01-15T09:48:12.371Z,993.24
2018-01-15T09:49:12.359Z,993.31
2018-01-15T09:50:12.346Z,993.24
2018-01-15T09:51:12.334Z,993.24
2018-01-15T09:52:12.322Z,993.28
2018-01-15T09:53:12.311Z,993.33
2018-01-15T09:54:12.297Z,993.36
2018-01-15T09:55:12.284Z,993.28
2018-01-15T09:56:12.273Z,993.35
2018-01-15T09:57:12.261Z,993.21
2018-01-15T09:58:12.248Z,993.26
2018-01-15T09:59:12.236Z,993.19
2018-01-15T10:00:12.223Z,993.15
2018-01-15T10:01:12.212Z,993.18
2018-01-15T10:02:12.200Z,993.25
2018-01-15T10:03:12.187Z,993.19
2018-01-15T10:04:12.175Z,993.08
2018-01-15T10:05:12.163Z,993.29
2018-01-15T10:06:12.150Z,992.98
2018-01-15T10:07:12.139Z,993.11
2018-01-15T10:08:12.127Z,993.14
2018-01-15T10:09:12.114Z,993.08
2018-01-15T10:10:12.102Z,993.14
2018-01-15T10:11:12.090Z,992.91
2018-01-15T10:12:12.085Z,992.97
2018-01-15T10:13:12.067Z,992.92
2018-01-15T10:14:12.053Z,992.93
2018-01-15T10:15:12.040Z,992.94
2018-01-15T10:16:12.044Z,992.88
2018-01-15T10:17:12.018Z,992.76
2018-01-15T10:18:12.004Z,992.77
2018-01-15T10:19:11.992Z,992.89
2018-01-15T10:20:11.980Z,992.63
2018-01-15T10:21:11.968Z,992.69
2018-01-15T10:22:11.955Z,992.72
2018-01-15T10:23:11.944Z,992.70
2018-01-15T10:24:11.932Z,992.51
2018-01-15T10:25:11.921Z,992.59
2018-01-15T10:26:11.913Z,992.58
2018-01-15T10:27:11.922Z,992.41
2018-01-15T10:28:11.882Z,992.66
2018-01-15T10:29:11.872Z,992.66
2018-01-15T10:30:11.860Z,992.55
2018-01-15T10:31:11.847Z,992.60
2018-01-15T10:32:11.835Z,992.60
2018-01-15T10:33:11.823Z,992.77
2018-01-15T10:34:11.811Z,992.52
2018-01-15T10:35:11.805Z,992.55
2018-01-15T10:36:11.789Z,992.49
2018-01-15T10:37:11.775Z,992.51
2018-01-15T10:38:11.762Z,992.33
2018-01-15T10:39:11.760Z,992.45
2018-01-15T10:40:11.740Z,992.39
2018-01-15T10:41:11.731Z,992.40
2018-01-15T10:42:11.768Z,992.42
2018-01-15T10:43:11.704Z,992.27
2018-01-15T10:44:11.703Z,992.21
2018-01-15T10:45:11.681Z,992.21
2018-01-15T10:46:11.669Z,992.18
2018-01-15T10:47:11.657Z,992.20
2018-01-15T10:48:11.645Z,992.16
2018-01-15T10:49:11.676Z,992.18
2018-01-15T10:50:11.622Z,992.16
2018-01-15T10:51:11.609Z,992.15
2018-01-15T10:52:11.598Z,992.10
2018-01-15T10:53:11.589Z,992.06
2018-01-15T10:54:11.575Z,992.11
2018-01-15T10:55:11.568Z,992.10
2018-01-15T10:56:11.551Z,991.98
2018-01-15T10:57:11.539Z,992.02
2018-01-15T10:58:11.526Z,991.99
2018-01-15T10:59:11.515Z,991.97
2018-01-15T11:00:11.505Z,991.96
2018-01-15T11:01:11.491Z,991.74
2018-01-15T11:02:11.504Z,991.84
2018-01-15T11:03:11.470Z,991.78
2018-01-15T11:04:11.456Z,991.85
2018-01-15T11:05:11.444Z,991.68
2018-01-15T11:06:11.432Z,991.51
2018-01-15T11:07:11.420Z,991.58
2018-01-15T11:08:11.408Z,991.55
2018-01-15T11:09:11.399Z,991.56
2018-01-15T11:10:11.385Z,991.71
2018-01-15T11:11:11.374Z,991.56
2018-01-15T11:12:11.362Z,991.47
2018-01-15T11:13:11.351Z,991.57
2018-01-15T11:14:11.339Z,991.47
2018-01-15T11:15:11.329Z,991.55
2018-01-15T11:16:11.316Z,991.42
2018-01-15T11:17:11.303Z,991.38
2018-01-15T11:18:11.292Z,991.36
2018-01-15T11:19:11.281Z,991.36
2018-01-15T11:20:11.279Z,991.30
2018-01-15T11:21:11.257Z,991.27
2018-01-15T11:22:11.244Z,991.25
2018-01-15T11:23:11.232Z,991.20
2018-01-15T11:24:11.222Z,991.16
2018-01-15T11:25:11.209Z,991.05
2018-01-15T11:26:11.211Z,991.22
2018-01-15T11:27:11.185Z,990.91
2018-01-15T11:28:11.173Z,990.96
2018-01-15T11:29:11.162Z,991.01
2018-01-15T11:30:11.158Z,990.98
2018-01-15T11:31:11.137Z,990.99
2018-01-15T11:32:11.125Z,990.85
2018-01-15T11:33:11.113Z,990.82
2018-01-15T11:34:11.100Z,991.13
2018-01-15T11:35:11.097Z,990.84
2018-01-15T11:36:11.076Z,990.81
2018-01-15T11:37:11.064Z,990.73
2018-01-15T11:38:11.051Z,990.74
2018-01-15T11:39:11.041Z,990.70
2018-01-15T11:40:11.036Z,990.53
2018-01-15T11:41:11.017Z,990.71
2018-01-15T11:42:11.002Z,990.52
2018-01-15T11:43:10.991Z,990.55
2018-01-15T11:44:10.978Z,990.64
2018-01-15T11:45:10.966Z,990.39
2018-01-15T11:46:10.962Z,990.36
2018-01-15T11:47:10.941Z,990.38
2018-01-15T11:48:10.930Z,990.28
2018-01-15T11:49:10.917Z,990.03
2018-01-15T11:50:10.905Z,989.99
2018-01-15T11:51:10.893Z,990.03
2018-01-15T11:52:10.881Z,990.05
2018-01-15T11:53:10.871Z,989.91
2018-01-15T11:54:10.856Z,989.88
2018-01-15T11:55:10.845Z,989.85
2018-01-15T11:56:10.840Z,989.84
2018-01-15T11:57:10.820Z,989.75
2018-01-15T11:58:10.806Z,989.67
2018-01-15T11:59:10.795Z,989.67
2018-01-15T12:00:10.783Z,989.51
2018-01-15T12:01:10.772Z,989.59
2018-01-15T12:02:10.759Z,989.58
2018-01-15T12:03:10.745Z,989.48
2018-01-15T12:04:10.734Z,989.51
2018-01-15T12:05:10.728Z,989.28
2018-01-15T12:06:10.710Z,989.32
2018-01-15T12:07:10.697Z,989.19
2018-01-15T12:08:10.685Z,989.37
2018-01-15T12:09:10.673Z,989.18
2018-01-15T12:10:10.667Z,989.17
2018-01-15T12:11:10.649Z,989.22
2018-01-15T12:12:10.638Z,989.16
2018-01-15T12:13:10.625Z,989.21
2018-01-15T12:14:10.638Z,989.08
2018-01-15T12:15:10.604Z,988.96
2018-01-15T12:16:10.590Z,989.17
2018-01-15T12:17:10.578Z,989.07
2018-01-15T12:18:10.565Z,989.00
2018-01-15T12:19:10.552Z,988.97
2018-01-15T12:20:10.574Z,988.77
2018-01-15T12:21:10.554Z,988.88
2018-01-15T12:22:10.518Z,988.87
2018-01-15T12:23:10.505Z,988.83
2018-01-15T12:24:10.494Z,988.71
2018-01-15T12:25:10.483Z,988.63
2018-01-15T12:26:10.471Z,988.62